BAW130 LEBL-EGLL
Flight info
| Callsign | BAW130 |
|---|---|
| Flight time | 1h 44m |
| Altitude | 34000 |
| Route | NATPI DCT EVNAM DCT AGN DCT SECHE DCT UVELI DCT CNA DCT MANAK DCT EPAPU DCT RINSO DCT EKRAS DCT REVTU DCT BOLRO UP87 ROXOG |
| Aircraft | A320/M-SDE3FGHIRWY/LB1 |
Departure
| Time | 2026-05-04 14:03 |
|---|---|
| Airport | Josep Tarradellas Barcelona-El Prat Airport (LEBL) |
Arrival
| Time | 2026-05-04 15:47 |
|---|---|
| Airport | London Heathrow Airport (EGLL) |
| Time | Latitude | Longitude | Altitude | Speed | Heading |
|---|---|---|---|---|---|
| 2026-05-04 13:36 | 41.29081 | 2.07744 | 4 ft | 0 kts | 155° |
| 2026-05-04 13:52 | 41.29086 | 2.07741 | 3 ft | 4 kts | 155° |
| 2026-05-04 13:52 | 41.29111 | 2.07727 | 3 ft | 4 kts | 155° |
| 2026-05-04 13:52 | 41.29135 | 2.07711 | 4 ft | 4 kts | 152° |
| 2026-05-04 13:53 | 41.29158 | 2.07693 | 3 ft | 4 kts | 134° |
| 2026-05-04 13:53 | 41.29173 | 2.07664 | 4 ft | 4 kts | 117° |
| 2026-05-04 13:53 | 41.29180 | 2.07648 | 4 ft | 1 kts | 118° |
| 2026-05-04 13:54 | 41.29180 | 2.07647 | 4 ft | 0 kts | 118° |
| 2026-05-04 13:56 | 41.29170 | 2.07674 | 3 ft | 10 kts | 115° |
| 2026-05-04 13:56 | 41.29196 | 2.07815 | 3 ft | 22 kts | 67° |
| 2026-05-04 13:56 | 41.29320 | 2.08183 | 3 ft | 3 kts | 64° |
| 2026-05-04 13:57 | 41.29331 | 2.08213 | 3 ft | 6 kts | 64° |
| 2026-05-04 13:57 | 41.29359 | 2.08294 | 3 ft | 13 kts | 67° |
| 2026-05-04 13:58 | 41.29149 | 2.08514 | 4 ft | 17 kts | 156° |
| 2026-05-04 13:58 | 41.28966 | 2.08620 | 8 ft | 13 kts | 154° |
| 2026-05-04 13:58 | 41.28874 | 2.08691 | 4 ft | 17 kts | 126° |
| 2026-05-04 13:59 | 41.28902 | 2.08846 | 3 ft | 19 kts | 65° |
| 2026-05-04 13:59 | 41.28957 | 2.09011 | 3 ft | 20 kts | 65° |
| 2026-05-04 13:59 | 41.29085 | 2.09381 | 3 ft | 24 kts | 65° |
| 2026-05-04 14:00 | 41.29155 | 2.09587 | 4 ft | 25 kts | 65° |
| 2026-05-04 14:00 | 41.29308 | 2.10006 | 3 ft | 24 kts | 55° |
| 2026-05-04 14:00 | 41.29370 | 2.10195 | 3 ft | 14 kts | 89° |
| 2026-05-04 14:01 | 41.29311 | 2.10283 | 3 ft | 14 kts | 156° |
| 2026-05-04 14:01 | 41.29219 | 2.10329 | 5 ft | 13 kts | 190° |
| 2026-05-04 14:01 | 41.29196 | 2.10253 | 5 ft | 0 kts | 242° |
| 2026-05-04 14:02 | 41.29164 | 2.10166 | 5 ft | 39 kts | 245° |
| 2026-05-04 14:02 | 41.28957 | 2.09566 | 7 ft | 100 kts | 245° |
| 2026-05-04 14:02 | 41.28601 | 2.08526 | 10 ft | 144 kts | 245° |
| 2026-05-04 14:02 | 41.28157 | 2.07205 | 312 ft | 160 kts | 245° |
| 2026-05-04 14:03 | 41.27684 | 2.05824 | 826 ft | 169 kts | 242° |
| 2026-05-04 14:03 | 41.27125 | 2.04395 | 1273 ft | 180 kts | 235° |
| 2026-05-04 14:03 | 41.26071 | 2.03420 | 1486 ft | 200 kts | 189° |
| 2026-05-04 14:03 | 41.24627 | 2.03371 | 1885 ft | 212 kts | 180° |
| 2026-05-04 14:04 | 41.21657 | 2.03438 | 3325 ft | 215 kts | 180° |
| 2026-05-04 14:04 | 41.20841 | 2.03456 | 3727 ft | 215 kts | 180° |
| 2026-05-04 14:04 | 41.20208 | 2.03471 | 4042 ft | 216 kts | 180° |
| 2026-05-04 14:05 | 41.17250 | 2.02815 | 5416 ft | 232 kts | 222° |
| 2026-05-04 14:05 | 41.16461 | 2.00962 | 6311 ft | 239 kts | 260° |
| 2026-05-04 14:05 | 41.16727 | 1.98764 | 7304 ft | 250 kts | 291° |
| 2026-05-04 14:06 | 41.17641 | 1.96759 | 8279 ft | 258 kts | 302° |
| 2026-05-04 14:06 | 41.18742 | 1.94841 | 8777 ft | 262 kts | 303° |
| 2026-05-04 14:06 | 41.19851 | 1.92940 | 8927 ft | 259 kts | 303° |
| 2026-05-04 14:06 | 41.20914 | 1.91014 | 8959 ft | 258 kts | 301° |
| 2026-05-04 14:07 | 41.21930 | 1.89056 | 8966 ft | 257 kts | 299° |
| 2026-05-04 14:07 | 41.22932 | 1.87095 | 8939 ft | 258 kts | 304° |
| 2026-05-04 14:07 | 41.24221 | 1.85328 | 9073 ft | 278 kts | 312° |
| 2026-05-04 14:07 | 41.25632 | 1.83484 | 9620 ft | 289 kts | 310° |
| 2026-05-04 14:08 | 41.27073 | 1.81574 | 10198 ft | 300 kts | 310° |
| 2026-05-04 14:08 | 41.28601 | 1.79532 | 10371 ft | 323 kts | 310° |
| 2026-05-04 14:08 | 41.30238 | 1.77341 | 10495 ft | 345 kts | 311° |
| 2026-05-04 14:08 | 41.31976 | 1.75024 | 10777 ft | 360 kts | 311° |
| 2026-05-04 14:09 | 41.35552 | 1.70279 | 11945 ft | 368 kts | 311° |
| 2026-05-04 14:09 | 41.37387 | 1.67838 | 12555 ft | 372 kts | 311° |
| 2026-05-04 14:10 | 41.41077 | 1.62915 | 13778 ft | 379 kts | 311° |
| 2026-05-04 14:10 | 41.42947 | 1.60420 | 14324 ft | 382 kts | 311° |
| 2026-05-04 14:10 | 41.44826 | 1.57914 | 14861 ft | 384 kts | 310° |
| 2026-05-04 14:10 | 41.46716 | 1.55388 | 15397 ft | 386 kts | 310° |
| 2026-05-04 14:11 | 41.48762 | 1.53031 | 15891 ft | 393 kts | 321° |
| 2026-05-04 14:11 | 41.53842 | 1.50050 | 16930 ft | 410 kts | 345° |
| 2026-05-04 14:11 | 41.56672 | 1.49411 | 17449 ft | 414 kts | 348° |
| 2026-05-04 14:12 | 41.59529 | 1.48793 | 17972 ft | 418 kts | 348° |
| 2026-05-04 14:12 | 41.62411 | 1.48169 | 18460 ft | 421 kts | 347° |
| 2026-05-04 14:12 | 41.68240 | 1.46893 | 19361 ft | 428 kts | 347° |
| 2026-05-04 14:13 | 41.71188 | 1.46242 | 19826 ft | 431 kts | 347° |
| 2026-05-04 14:13 | 41.74156 | 1.45584 | 20278 ft | 434 kts | 347° |
| 2026-05-04 14:13 | 41.77142 | 1.44921 | 20723 ft | 437 kts | 347° |
| 2026-05-04 14:13 | 41.80150 | 1.44253 | 21131 ft | 440 kts | 347° |
| 2026-05-04 14:14 | 41.83184 | 1.43580 | 21532 ft | 443 kts | 347° |
| 2026-05-04 14:14 | 41.89316 | 1.42220 | 22336 ft | 450 kts | 347° |
| 2026-05-04 14:14 | 41.92372 | 1.41543 | 22729 ft | 453 kts | 346° |
| 2026-05-04 14:15 | 41.98630 | 1.40156 | 23497 ft | 459 kts | 346° |
| 2026-05-04 14:15 | 42.04990 | 1.38742 | 24063 ft | 466 kts | 346° |
| 2026-05-04 14:16 | 42.11427 | 1.37315 | 24707 ft | 471 kts | 346° |
| 2026-05-04 14:16 | 42.14671 | 1.36592 | 25030 ft | 474 kts | 346° |
| 2026-05-04 14:17 | 42.21200 | 1.35129 | 25708 ft | 479 kts | 345° |
| 2026-05-04 14:17 | 42.24496 | 1.34390 | 26030 ft | 481 kts | 345° |
| 2026-05-04 14:17 | 42.31139 | 1.32900 | 26582 ft | 486 kts | 345° |
| 2026-05-04 14:18 | 42.34477 | 1.32147 | 26907 ft | 486 kts | 345° |
| 2026-05-04 14:18 | 42.41146 | 1.30641 | 27761 ft | 486 kts | 345° |
| 2026-05-04 14:19 | 42.47805 | 1.29146 | 28579 ft | 485 kts | 345° |
| 2026-05-04 14:19 | 42.51135 | 1.28399 | 29007 ft | 485 kts | 345° |
| 2026-05-04 14:19 | 42.54455 | 1.27652 | 29457 ft | 484 kts | 345° |
| 2026-05-04 14:19 | 42.57773 | 1.26902 | 29919 ft | 483 kts | 345° |
| 2026-05-04 14:20 | 42.61087 | 1.26155 | 30282 ft | 483 kts | 345° |
| 2026-05-04 14:20 | 42.64393 | 1.25407 | 30740 ft | 480 kts | 345° |
| 2026-05-04 14:20 | 42.67684 | 1.24658 | 31192 ft | 479 kts | 345° |
| 2026-05-04 14:21 | 42.72489 | 1.23568 | 31802 ft | 478 kts | 345° |
| 2026-05-04 14:21 | 42.75089 | 1.23051 | 32149 ft | 478 kts | 347° |
| 2026-05-04 14:21 | 42.78392 | 1.22528 | 32541 ft | 478 kts | 348° |
| 2026-05-04 14:22 | 42.81713 | 1.22108 | 32897 ft | 479 kts | 349° |
| 2026-05-04 14:22 | 42.85033 | 1.21736 | 33261 ft | 479 kts | 349° |
| 2026-05-04 14:22 | 42.88356 | 1.21363 | 33549 ft | 480 kts | 349° |
| 2026-05-04 14:22 | 42.91680 | 1.20961 | 33838 ft | 480 kts | 348° |
| 2026-05-04 14:23 | 42.98397 | 1.20052 | 33906 ft | 491 kts | 348° |
| 2026-05-04 14:23 | 43.00653 | 1.19728 | 33904 ft | 493 kts | 348° |
| 2026-05-04 14:24 | 43.08576 | 1.18598 | 33906 ft | 492 kts | 348° |
| 2026-05-04 14:24 | 43.15392 | 1.17657 | 33909 ft | 492 kts | 349° |
| 2026-05-04 14:25 | 43.22206 | 1.16719 | 33909 ft | 492 kts | 349° |
| 2026-05-04 14:25 | 43.32418 | 1.15303 | 33930 ft | 492 kts | 349° |
| 2026-05-04 14:26 | 43.38118 | 1.14510 | 33958 ft | 491 kts | 349° |
| 2026-05-04 14:26 | 43.44932 | 1.13556 | 33929 ft | 493 kts | 350° |
| 2026-05-04 14:27 | 43.51769 | 1.12594 | 33902 ft | 495 kts | 350° |
| 2026-05-04 14:27 | 43.58518 | 1.11247 | 33893 ft | 490 kts | 340° |
| 2026-05-04 14:28 | 43.64727 | 1.07717 | 33912 ft | 478 kts | 323° |
| 2026-05-04 14:28 | 43.70399 | 1.02930 | 33914 ft | 478 kts | 322° |
| 2026-05-04 14:29 | 43.81767 | 0.93290 | 33922 ft | 480 kts | 322° |
| 2026-05-04 14:30 | 43.87454 | 0.88446 | 33941 ft | 480 kts | 322° |
| 2026-05-04 14:31 | 43.96552 | 0.82309 | 33945 ft | 486 kts | 329° |
| 2026-05-04 14:32 | 44.08823 | 0.74382 | 33984 ft | 487 kts | 330° |
| 2026-05-04 14:32 | 44.14963 | 0.70396 | 33961 ft | 487 kts | 330° |
| 2026-05-04 14:33 | 44.21109 | 0.66395 | 33953 ft | 488 kts | 329° |
| 2026-05-04 14:33 | 44.27263 | 0.62386 | 33955 ft | 488 kts | 330° |
| 2026-05-04 14:34 | 44.33424 | 0.58378 | 33936 ft | 489 kts | 330° |
| 2026-05-04 14:34 | 44.39586 | 0.54353 | 33932 ft | 489 kts | 330° |
| 2026-05-04 14:35 | 44.45740 | 0.50308 | 33942 ft | 489 kts | 330° |
| 2026-05-04 14:35 | 44.51888 | 0.46234 | 33936 ft | 489 kts | 329° |
| 2026-05-04 14:36 | 44.58034 | 0.42143 | 33933 ft | 489 kts | 329° |
| 2026-05-04 14:36 | 44.64182 | 0.38047 | 33967 ft | 489 kts | 330° |
| 2026-05-04 14:37 | 44.70287 | 0.33965 | 33944 ft | 484 kts | 330° |
| 2026-05-04 14:37 | 44.76369 | 0.29901 | 33945 ft | 484 kts | 330° |
| 2026-05-04 14:38 | 44.82440 | 0.25841 | 33937 ft | 482 kts | 330° |
| 2026-05-04 14:38 | 44.88497 | 0.21775 | 33929 ft | 482 kts | 330° |
| 2026-05-04 14:39 | 44.94511 | 0.17715 | 33930 ft | 482 kts | 330° |
| 2026-05-04 14:39 | 45.00565 | 0.13622 | 33932 ft | 482 kts | 330° |
| 2026-05-04 14:40 | 45.09648 | 0.07470 | 33922 ft | 483 kts | 330° |
| 2026-05-04 14:40 | 45.15705 | 0.03355 | 33911 ft | 483 kts | 330° |
| 2026-05-04 14:41 | 45.21765 | -0.00766 | 33940 ft | 483 kts | 330° |
| 2026-05-04 14:42 | 45.33873 | -0.09037 | 33939 ft | 483 kts | 330° |
| 2026-05-04 14:42 | 45.39927 | -0.13183 | 33948 ft | 483 kts | 330° |
| 2026-05-04 14:43 | 45.45976 | -0.17352 | 33950 ft | 483 kts | 330° |
| 2026-05-04 14:43 | 45.52023 | -0.21522 | 33954 ft | 483 kts | 330° |
| 2026-05-04 14:44 | 45.58072 | -0.25699 | 33972 ft | 483 kts | 330° |
| 2026-05-04 14:44 | 45.64112 | -0.29888 | 33968 ft | 482 kts | 328° |
| 2026-05-04 14:45 | 45.69581 | -0.35232 | 33962 ft | 474 kts | 317° |
| 2026-05-04 14:45 | 45.74761 | -0.41088 | 33942 ft | 475 kts | 317° |
| 2026-05-04 14:46 | 45.79949 | -0.46933 | 33943 ft | 474 kts | 317° |
| 2026-05-04 14:46 | 45.85133 | -0.52795 | 33946 ft | 475 kts | 317° |
| 2026-05-04 14:47 | 45.90310 | -0.58671 | 33944 ft | 474 kts | 317° |
| 2026-05-04 14:47 | 45.95487 | -0.64558 | 33947 ft | 475 kts | 317° |
| 2026-05-04 14:48 | 46.00625 | -0.70413 | 33953 ft | 474 kts | 317° |
| 2026-05-04 14:48 | 46.05791 | -0.76321 | 33952 ft | 474 kts | 317° |
| 2026-05-04 14:49 | 46.10952 | -0.82243 | 33970 ft | 475 kts | 317° |
| 2026-05-04 14:49 | 46.16117 | -0.88181 | 33962 ft | 475 kts | 317° |
| 2026-05-04 14:50 | 46.21667 | -0.93426 | 33945 ft | 482 kts | 332° |
| 2026-05-04 14:50 | 46.28101 | -0.96262 | 33960 ft | 487 kts | 346° |
| 2026-05-04 14:51 | 46.34729 | -0.98278 | 33956 ft | 487 kts | 346° |
| 2026-05-04 14:51 | 46.41364 | -1.00327 | 33951 ft | 488 kts | 346° |
| 2026-05-04 14:52 | 46.48003 | -1.02376 | 33960 ft | 488 kts | 346° |
| 2026-05-04 14:52 | 46.54641 | -1.04417 | 33958 ft | 487 kts | 346° |
| 2026-05-04 14:53 | 46.61269 | -1.06456 | 33983 ft | 487 kts | 346° |
| 2026-05-04 14:53 | 46.67843 | -1.08491 | 33984 ft | 486 kts | 346° |
| 2026-05-04 14:54 | 46.74451 | -1.10547 | 33979 ft | 485 kts | 346° |
| 2026-05-04 14:54 | 46.81048 | -1.12615 | 33976 ft | 485 kts | 346° |
| 2026-05-04 14:55 | 46.87646 | -1.14683 | 33971 ft | 485 kts | 346° |
| 2026-05-04 14:55 | 46.94238 | -1.16747 | 33967 ft | 485 kts | 346° |
| 2026-05-04 14:56 | 47.00831 | -1.18818 | 33967 ft | 484 kts | 346° |
| 2026-05-04 14:56 | 47.07410 | -1.20894 | 33961 ft | 483 kts | 346° |
| 2026-05-04 14:57 | 47.13978 | -1.22971 | 33970 ft | 483 kts | 346° |
| 2026-05-04 14:57 | 47.20548 | -1.25043 | 33986 ft | 483 kts | 347° |
| 2026-05-04 14:58 | 47.27107 | -1.27114 | 33975 ft | 481 kts | 347° |
| 2026-05-04 14:58 | 47.33655 | -1.29201 | 33966 ft | 481 kts | 347° |
| 2026-05-04 14:59 | 47.40201 | -1.31291 | 33962 ft | 482 kts | 347° |
| 2026-05-04 15:00 | 47.50036 | -1.34434 | 33944 ft | 482 kts | 347° |
| 2026-05-04 15:00 | 47.56599 | -1.36543 | 33944 ft | 483 kts | 347° |
| 2026-05-04 15:01 | 47.66462 | -1.39726 | 33941 ft | 484 kts | 347° |
| 2026-05-04 15:01 | 47.73099 | -1.41352 | 33940 ft | 484 kts | 357° |
| 2026-05-04 15:02 | 47.79835 | -1.41847 | 33949 ft | 485 kts | 357° |
| 2026-05-04 15:02 | 47.86584 | -1.42355 | 33945 ft | 486 kts | 357° |
| 2026-05-04 15:03 | 47.93341 | -1.42865 | 33949 ft | 487 kts | 357° |
| 2026-05-04 15:03 | 48.00106 | -1.43383 | 33954 ft | 487 kts | 357° |
| 2026-05-04 15:04 | 48.06878 | -1.43889 | 33960 ft | 487 kts | 356° |
| 2026-05-04 15:04 | 48.13656 | -1.44373 | 33962 ft | 488 kts | 357° |
| 2026-05-04 15:05 | 48.20432 | -1.44846 | 33963 ft | 488 kts | 357° |
| 2026-05-04 15:05 | 48.27213 | -1.45330 | 33971 ft | 487 kts | 356° |
| 2026-05-04 15:06 | 48.33988 | -1.45821 | 33973 ft | 487 kts | 356° |
| 2026-05-04 15:07 | 48.44153 | -1.46556 | 33977 ft | 487 kts | 356° |
| 2026-05-04 15:07 | 48.50919 | -1.47050 | 33987 ft | 486 kts | 356° |
| 2026-05-04 15:08 | 48.57667 | -1.47543 | 33992 ft | 485 kts | 356° |
| 2026-05-04 15:08 | 48.64401 | -1.48040 | 33991 ft | 484 kts | 356° |
| 2026-05-04 15:09 | 48.71120 | -1.48529 | 33995 ft | 483 kts | 356° |
| 2026-05-04 15:09 | 48.77826 | -1.49015 | 33997 ft | 482 kts | 356° |
| 2026-05-04 15:10 | 48.87809 | -1.49749 | 33995 ft | 481 kts | 356° |
| 2026-05-04 15:11 | 48.97644 | -1.52403 | 33990 ft | 479 kts | 346° |
| 2026-05-04 15:11 | 49.04160 | -1.54503 | 33988 ft | 479 kts | 347° |
| 2026-05-04 15:12 | 49.09577 | -1.56234 | 33999 ft | 478 kts | 347° |
| 2026-05-04 15:12 | 49.16086 | -1.58322 | 34002 ft | 477 kts | 347° |
| 2026-05-04 15:13 | 49.22581 | -1.60422 | 33998 ft | 477 kts | 347° |
| 2026-05-04 15:13 | 49.29062 | -1.62525 | 33990 ft | 476 kts | 347° |
| 2026-05-04 15:14 | 49.35536 | -1.64638 | 33997 ft | 475 kts | 347° |
| 2026-05-04 15:14 | 49.42007 | -1.66749 | 33995 ft | 475 kts | 347° |
| 2026-05-04 15:15 | 49.48479 | -1.68853 | 33999 ft | 476 kts | 347° |
| 2026-05-04 15:15 | 49.54951 | -1.70972 | 34001 ft | 475 kts | 347° |
| 2026-05-04 15:16 | 49.61491 | -1.72353 | 34006 ft | 475 kts | 0° |
| 2026-05-04 15:16 | 49.64792 | -1.72131 | 34005 ft | 475 kts | 3° |
| 2026-05-04 15:17 | 49.74694 | -1.71293 | 34007 ft | 475 kts | 3° |
| 2026-05-04 15:17 | 49.84593 | -1.70470 | 34007 ft | 475 kts | 3° |
| 2026-05-04 15:18 | 49.91195 | -1.69900 | 34011 ft | 475 kts | 3° |
| 2026-05-04 15:19 | 50.01051 | -1.68560 | 33997 ft | 474 kts | 14° |
| 2026-05-04 15:19 | 50.10496 | -1.64082 | 33998 ft | 473 kts | 18° |
| 2026-05-04 15:20 | 50.16791 | -1.61029 | 33652 ft | 474 kts | 18° |
| 2026-05-04 15:20 | 50.19945 | -1.59496 | 33364 ft | 475 kts | 18° |
| 2026-05-04 15:20 | 50.23103 | -1.57956 | 33096 ft | 476 kts | 18° |
| 2026-05-04 15:21 | 50.26275 | -1.56409 | 32820 ft | 478 kts | 18° |
| 2026-05-04 15:21 | 50.29460 | -1.54861 | 31913 ft | 484 kts | 18° |
| 2026-05-04 15:21 | 50.35894 | -1.51718 | 29970 ft | 480 kts | 19° |
| 2026-05-04 15:22 | 50.39066 | -1.50156 | 28862 ft | 474 kts | 19° |
| 2026-05-04 15:22 | 50.42183 | -1.48618 | 27860 ft | 466 kts | 18° |
| 2026-05-04 15:22 | 50.48265 | -1.45621 | 26133 ft | 445 kts | 17° |
| 2026-05-04 15:23 | 50.51173 | -1.44184 | 25474 ft | 432 kts | 17° |
| 2026-05-04 15:23 | 50.53962 | -1.42593 | 24808 ft | 421 kts | 24° |
| 2026-05-04 15:23 | 50.56540 | -1.40521 | 24160 ft | 412 kts | 29° |
| 2026-05-04 15:23 | 50.59026 | -1.38378 | 23504 ft | 403 kts | 28° |
| 2026-05-04 15:24 | 50.63808 | -1.34289 | 22245 ft | 383 kts | 28° |
| 2026-05-04 15:24 | 50.68370 | -1.30381 | 21073 ft | 364 kts | 29° |
| 2026-05-04 15:25 | 50.70569 | -1.28486 | 20519 ft | 356 kts | 29° |
| 2026-05-04 15:25 | 50.70697 | -1.28376 | 20489 ft | 355 kts | 29° |
| 2026-05-04 15:26 | 50.72607 | -1.26726 | 19993 ft | 349 kts | 29° |
| 2026-05-04 15:26 | 50.74712 | -1.24902 | 19480 ft | 341 kts | 29° |
| 2026-05-04 15:26 | 50.75231 | -1.24452 | 19355 ft | 340 kts | 29° |
| 2026-05-04 15:27 | 50.78343 | -1.21588 | 18592 ft | 329 kts | 33° |
| 2026-05-04 15:28 | 50.82096 | -1.17695 | 17624 ft | 316 kts | 35° |
| 2026-05-04 15:28 | 50.83899 | -1.15782 | 17179 ft | 308 kts | 35° |
| 2026-05-04 15:28 | 50.87389 | -1.12110 | 16357 ft | 295 kts | 34° |
| 2026-05-04 15:29 | 50.89082 | -1.10341 | 15963 ft | 289 kts | 34° |
| 2026-05-04 15:30 | 50.95598 | -1.03573 | 14325 ft | 273 kts | 33° |
| 2026-05-04 15:30 | 51.00265 | -0.98543 | 13037 ft | 278 kts | 40° |
| 2026-05-04 15:31 | 51.03087 | -0.93914 | 11543 ft | 309 kts | 49° |
| 2026-05-04 15:31 | 51.04561 | -0.91275 | 10974 ft | 315 kts | 49° |
| 2026-05-04 15:32 | 51.08720 | -0.83869 | 10654 ft | 285 kts | 49° |
| 2026-05-04 15:32 | 51.11289 | -0.79297 | 10411 ft | 269 kts | 49° |
| 2026-05-04 15:33 | 51.13694 | -0.75005 | 10179 ft | 254 kts | 49° |
| 2026-05-04 15:34 | 51.17153 | -0.68798 | 9615 ft | 250 kts | 49° |
| 2026-05-04 15:34 | 51.18303 | -0.66736 | 9330 ft | 248 kts | 49° |
| 2026-05-04 15:34 | 51.20581 | -0.62645 | 8791 ft | 245 kts | 49° |
| 2026-05-04 15:35 | 51.22825 | -0.58608 | 8264 ft | 241 kts | 49° |
| 2026-05-04 15:35 | 51.23933 | -0.56609 | 8005 ft | 240 kts | 49° |
| 2026-05-04 15:35 | 51.25036 | -0.54617 | 7739 ft | 238 kts | 48° |
| 2026-05-04 15:36 | 51.27211 | -0.50682 | 7284 ft | 232 kts | 48° |
| 2026-05-04 15:36 | 51.28257 | -0.48788 | 7209 ft | 223 kts | 48° |
| 2026-05-04 15:36 | 51.29266 | -0.46962 | 7119 ft | 217 kts | 48° |
| 2026-05-04 15:37 | 51.30190 | -0.45079 | 7024 ft | 215 kts | 59° |
| 2026-05-04 15:37 | 51.30799 | -0.42911 | 6999 ft | 215 kts | 73° |
| 2026-05-04 15:37 | 51.31180 | -0.40598 | 7003 ft | 216 kts | 75° |
| 2026-05-04 15:37 | 51.31564 | -0.38276 | 7012 ft | 216 kts | 75° |
| 2026-05-04 15:38 | 51.31947 | -0.35959 | 7002 ft | 215 kts | 75° |
| 2026-05-04 15:38 | 51.32331 | -0.33646 | 7001 ft | 215 kts | 75° |
| 2026-05-04 15:38 | 51.32716 | -0.31329 | 7002 ft | 216 kts | 75° |
| 2026-05-04 15:38 | 51.33100 | -0.29011 | 7019 ft | 216 kts | 75° |
| 2026-05-04 15:39 | 51.33476 | -0.26739 | 7021 ft | 216 kts | 75° |
| 2026-05-04 15:39 | 51.33867 | -0.24401 | 6828 ft | 219 kts | 76° |
| 2026-05-04 15:39 | 51.34659 | -0.19707 | 6320 ft | 217 kts | 75° |
| 2026-05-04 15:40 | 51.35053 | -0.17382 | 6081 ft | 215 kts | 75° |
| 2026-05-04 15:40 | 51.35435 | -0.15109 | 5865 ft | 208 kts | 76° |
| 2026-05-04 15:40 | 51.35857 | -0.12963 | 5600 ft | 202 kts | 63° |
| 2026-05-04 15:40 | 51.36732 | -0.11280 | 5374 ft | 195 kts | 36° |
| 2026-05-04 15:41 | 51.37940 | -0.10413 | 5143 ft | 189 kts | 10° |
| 2026-05-04 15:41 | 51.39224 | -0.10336 | 4947 ft | 182 kts | 359° |
| 2026-05-04 15:41 | 51.40477 | -0.10365 | 4746 ft | 178 kts | 359° |
| 2026-05-04 15:41 | 51.41709 | -0.10388 | 4526 ft | 176 kts | 359° |
| 2026-05-04 15:42 | 51.42929 | -0.10412 | 4280 ft | 175 kts | 359° |
| 2026-05-04 15:42 | 51.44155 | -0.10440 | 4044 ft | 173 kts | 358° |
| 2026-05-04 15:42 | 51.45290 | -0.10952 | 3818 ft | 173 kts | 330° |
| 2026-05-04 15:42 | 51.46141 | -0.12242 | 3588 ft | 174 kts | 304° |
| 2026-05-04 15:43 | 51.46537 | -0.14072 | 3339 ft | 176 kts | 276° |
| 2026-05-04 15:43 | 51.46547 | -0.16044 | 3097 ft | 177 kts | 272° |
| 2026-05-04 15:43 | 51.46549 | -0.17992 | 2871 ft | 176 kts | 272° |
| 2026-05-04 15:43 | 51.46546 | -0.19991 | 2753 ft | 177 kts | 272° |
| 2026-05-04 15:44 | 51.46541 | -0.21963 | 2645 ft | 176 kts | 270° |
| 2026-05-04 15:44 | 51.46532 | -0.23923 | 2494 ft | 176 kts | 272° |
| 2026-05-04 15:44 | 51.46528 | -0.25880 | 2279 ft | 175 kts | 270° |
| 2026-05-04 15:44 | 51.46524 | -0.27823 | 2059 ft | 174 kts | 271° |
| 2026-05-04 15:45 | 51.46521 | -0.29753 | 1829 ft | 173 kts | 273° |
| 2026-05-04 15:45 | 51.46518 | -0.31692 | 1591 ft | 173 kts | 272° |
| 2026-05-04 15:45 | 51.46515 | -0.33628 | 1361 ft | 174 kts | 272° |
| 2026-05-04 15:45 | 51.46511 | -0.35553 | 1123 ft | 170 kts | 271° |
| 2026-05-04 15:46 | 51.46507 | -0.37374 | 878 ft | 158 kts | 271° |
| 2026-05-04 15:46 | 51.46498 | -0.39099 | 644 ft | 152 kts | 272° |
| 2026-05-04 15:46 | 51.46498 | -0.40760 | 415 ft | 149 kts | 273° |
| 2026-05-04 15:46 | 51.46498 | -0.42379 | 267 ft | 143 kts | 273° |
| 2026-05-04 15:47 | 51.46496 | -0.43932 | 108 ft | 139 kts | 274° |
| 2026-05-04 15:47 | 51.46504 | -0.45121 | 93 ft | 85 kts | 269° |
| 2026-05-04 15:47 | 51.46494 | -0.45771 | 86 ft | 40 kts | 268° |
| 2026-05-04 15:47 | 51.46492 | -0.46055 | 86 ft | 33 kts | 270° |
| 2026-05-04 15:48 | 51.46488 | -0.46408 | 89 ft | 32 kts | 269° |
| 2026-05-04 15:48 | 51.46535 | -0.46693 | 90 ft | 24 kts | 288° |
| 2026-05-04 15:48 | 51.46656 | -0.46965 | 87 ft | 12 kts | 276° |
| 2026-05-04 15:49 | 51.46656 | -0.47117 | 86 ft | 15 kts | 271° |
| 2026-05-04 15:49 | 51.46656 | -0.47299 | 88 ft | 18 kts | 269° |
| 2026-05-04 15:49 | 51.46655 | -0.47572 | 86 ft | 28 kts | 270° |
| 2026-05-04 15:49 | 51.46654 | -0.47825 | 86 ft | 20 kts | 269° |
| 2026-05-04 15:50 | 51.46654 | -0.48010 | 86 ft | 12 kts | 270° |
| 2026-05-04 15:50 | 51.46654 | -0.48158 | 86 ft | 14 kts | 270° |
| 2026-05-04 15:50 | 51.46653 | -0.48329 | 86 ft | 17 kts | 269° |
| 2026-05-04 15:50 | 51.46698 | -0.48469 | 89 ft | 16 kts | 359° |
| 2026-05-04 15:51 | 51.46806 | -0.48473 | 86 ft | 17 kts | 4° |
| 2026-05-04 15:51 | 51.46932 | -0.48470 | 88 ft | 20 kts | 359° |
| 2026-05-04 15:51 | 51.47057 | -0.48471 | 88 ft | 15 kts | 0° |
| 2026-05-04 15:51 | 51.47167 | -0.48472 | 88 ft | 11 kts | 359° |
| 2026-05-04 15:52 | 51.47189 | -0.48537 | 86 ft | 4 kts | 265° |
| 2026-05-04 15:52 | 51.47188 | -0.48585 | 86 ft | 3 kts | 270° |
| 2026-05-04 15:52 | 51.47188 | -0.48590 | 86 ft | 0 kts | 270° |